createdAt,value
2022-11-15T00:00:50.674Z,27.90
2022-11-15T00:03:18.559Z,19.47
2022-11-15T00:05:45.346Z,16.77
2022-11-15T00:08:12.221Z,19.40
2022-11-15T00:10:39.055Z,18.87
2022-11-15T00:13:07.254Z,18.97
2022-11-15T00:15:37.270Z,15.00
2022-11-15T00:18:05.696Z,17.50
2022-11-15T00:20:34.856Z,16.10
2022-11-15T00:23:01.494Z,18.17
2022-11-15T00:25:28.560Z,15.87
2022-11-15T00:27:59.093Z,13.97
2022-11-15T00:30:26.365Z,11.90
2022-11-15T00:32:52.879Z,16.73
2022-11-15T00:35:20.238Z,19.70
2022-11-15T00:37:48.463Z,17.60
2022-11-15T00:40:15.616Z,11.53
2022-11-15T00:42:42.383Z,17.57
2022-11-15T00:45:10.097Z,17.03
2022-11-15T00:47:36.628Z,11.70
2022-11-15T00:50:03.801Z,14.60
2022-11-15T00:52:30.679Z,18.77
2022-11-15T00:54:57.262Z,19.80
2022-11-15T00:57:24.288Z,16.67
2022-11-15T00:59:50.843Z,13.60
2022-11-15T01:02:17.323Z,15.43
2022-11-15T01:04:43.866Z,17.67
2022-11-15T01:07:10.795Z,11.80
2022-11-15T01:09:37.419Z,18.17
2022-11-15T01:12:04.255Z,13.63
2022-11-15T01:14:30.922Z,21.57
2022-11-15T01:16:57.385Z,14.77
2022-11-15T01:19:24.018Z,15.13
2022-11-15T01:21:51.367Z,24.63
2022-11-15T01:24:18.090Z,16.10
2022-11-15T01:26:44.572Z,22.63
2022-11-15T01:29:11.092Z,16.03
2022-11-15T01:31:37.564Z,20.53
2022-11-15T01:34:04.050Z,23.80
2022-11-15T01:36:30.527Z,10.30
2022-11-15T01:38:58.703Z,15.23
2022-11-15T01:41:27.655Z,18.03
2022-11-15T01:43:56.676Z,13.30
2022-11-15T01:46:34.034Z,19.80
2022-11-15T01:49:09.313Z,23.10
2022-11-15T01:51:36.128Z,16.70
2022-11-15T01:54:10.185Z,27.23
2022-11-15T01:56:44.943Z,19.50
2022-11-15T01:59:11.863Z,23.93
2022-11-15T02:01:38.875Z,14.27
2022-11-15T02:04:14.896Z,14.83
2022-11-15T02:06:42.535Z,20.57
2022-11-15T02:09:09.423Z,15.27
2022-11-15T02:11:36.291Z,16.27
2022-11-15T02:14:04.640Z,17.33
2022-11-15T02:16:47.735Z,15.93
2022-11-15T02:19:17.319Z,19.10
2022-11-15T02:22:22.016Z,12.37
2022-11-15T02:25:10.078Z,11.90
2022-11-15T02:27:58.561Z,21.13
2022-11-15T02:30:39.445Z,10.67
2022-11-15T02:33:14.379Z,8.30
2022-11-15T02:35:40.791Z,8.10
2022-11-15T02:38:34.535Z,20.37
2022-11-15T02:41:13.325Z,10.17
2022-11-15T02:43:57.809Z,10.47
2022-11-15T02:47:05.334Z,16.90
2022-11-15T02:49:33.934Z,13.20
2022-11-15T02:52:00.454Z,18.03
2022-11-15T02:54:31.614Z,14.27
2022-11-15T02:57:13.901Z,21.87
2022-11-15T02:59:58.437Z,16.50
2022-11-15T03:03:03.942Z,13.27
2022-11-15T03:05:45.757Z,8.20
2022-11-15T03:08:30.543Z,7.67
2022-11-15T03:11:05.875Z,16.80
2022-11-15T03:13:39.393Z,11.93
2022-11-15T03:16:13.996Z,14.50
2022-11-15T03:18:43.252Z,13.90
2022-11-15T03:21:12.341Z,18.30
2022-11-15T03:23:41.084Z,11.17
2022-11-15T03:26:13.264Z,15.30
2022-11-15T03:28:46.961Z,13.43
2022-11-15T03:31:34.351Z,14.73
2022-11-15T03:34:03.287Z,18.43
2022-11-15T03:36:31.894Z,19.83
2022-11-15T03:39:02.767Z,20.80
2022-11-15T03:41:36.266Z,12.57
2022-11-15T03:44:13.468Z,22.27
2022-11-15T03:46:45.602Z,7.70
2022-11-15T03:49:16.453Z,16.20
2022-11-15T03:51:43.059Z,14.83
2022-11-15T03:54:09.675Z,14.87
2022-11-15T03:56:36.108Z,13.23
2022-11-15T03:59:02.724Z,13.60
2022-11-15T04:01:29.307Z,15.00
2022-11-15T04:03:55.967Z,16.60
2022-11-15T04:06:22.570Z,12.60
2022-11-15T04:08:49.128Z,23.33
2022-11-15T04:11:15.623Z,21.43
2022-11-15T04:13:42.192Z,12.33
2022-11-15T04:16:08.717Z,15.23
2022-11-15T04:18:35.140Z,10.10
2022-11-15T04:21:20.378Z,19.03
2022-11-15T04:24:07.158Z,14.73
2022-11-15T04:26:33.866Z,14.03
2022-11-15T04:29:19.270Z,14.33
2022-11-15T04:31:45.794Z,11.97
2022-11-15T04:34:12.384Z,24.07
2022-11-15T04:36:57.345Z,9.37
2022-11-15T04:39:24.074Z,18.53
2022-11-15T04:41:50.539Z,9.83
2022-11-15T04:44:17.514Z,20.43
2022-11-15T04:46:43.960Z,21.37
2022-11-15T04:49:10.534Z,31.47
2022-11-15T04:51:37.362Z,13.20
2022-11-15T04:54:03.931Z,12.23
2022-11-15T04:56:30.566Z,33.73
2022-11-15T04:58:57.165Z,15.40
2022-11-15T05:01:23.917Z,19.03
2022-11-15T05:04:22.927Z,15.40
2022-11-15T05:06:51.551Z,10.03
2022-11-15T05:09:19.635Z,16.47
2022-11-15T05:11:46.338Z,11.47
2022-11-15T05:14:12.925Z,11.80
2022-11-15T05:16:40.038Z,15.17
2022-11-15T05:19:07.332Z,17.53
2022-11-15T05:21:34.620Z,14.23
2022-11-15T05:24:02.071Z,15.90
2022-11-15T05:26:29.023Z,13.50
2022-11-15T05:28:57.169Z,17.63
2022-11-15T05:31:24.079Z,10.53
2022-11-15T05:33:54.467Z,13.07
2022-11-15T05:36:28.905Z,17.60
2022-11-15T05:38:55.533Z,32.67
2022-11-15T05:41:26.889Z,17.87
2022-11-15T05:43:54.468Z,17.10
2022-11-15T05:46:20.985Z,14.53
2022-11-15T05:48:50.325Z,12.83
2022-11-15T05:51:18.549Z,14.77
2022-11-15T05:53:45.733Z,11.20
2022-11-15T05:56:12.459Z,18.87
2022-11-15T05:58:39.060Z,14.20
2022-11-15T06:01:06.005Z,14.37
2022-11-15T06:03:32.846Z,20.57
2022-11-15T06:05:59.473Z,18.60
2022-11-15T06:08:26.024Z,12.23
2022-11-15T06:10:52.541Z,13.17
2022-11-15T06:13:19.203Z,15.20
2022-11-15T06:15:45.740Z,17.73
2022-11-15T06:18:12.274Z,11.27
2022-11-15T06:20:38.786Z,13.87
2022-11-15T06:23:05.969Z,15.67
2022-11-15T06:25:32.806Z,27.83
2022-11-15T06:27:59.759Z,11.63
2022-11-15T06:30:27.499Z,10.20
2022-11-15T06:33:02.967Z,24.00
2022-11-15T06:35:30.289Z,26.03
2022-11-15T06:37:56.809Z,14.93
2022-11-15T06:40:23.254Z,17.13
2022-11-15T06:42:49.780Z,12.53
2022-11-15T06:45:16.283Z,10.13
2022-11-15T06:47:47.689Z,15.83
2022-11-15T06:50:14.487Z,13.77
2022-11-15T06:52:41.275Z,14.90
2022-11-15T06:55:09.004Z,16.13
2022-11-15T06:57:35.979Z,13.00
2022-11-15T07:00:06.376Z,14.20
2022-11-15T07:02:33.082Z,16.07
2022-11-15T07:04:59.618Z,13.73
2022-11-15T07:07:26.232Z,11.63
2022-11-15T07:09:52.748Z,13.93
2022-11-15T07:12:19.298Z,30.07
2022-11-15T07:14:45.851Z,8.83
2022-11-15T07:17:12.323Z,17.23
2022-11-15T07:19:38.829Z,17.30
2022-11-15T07:22:05.367Z,12.70
2022-11-15T07:24:31.795Z,18.37
2022-11-15T07:26:58.317Z,18.17
2022-11-15T07:29:25.014Z,17.67
2022-11-15T07:31:51.716Z,20.57
2022-11-15T07:34:18.233Z,14.23
2022-11-15T07:36:44.785Z,7.53
2022-11-15T07:39:13.249Z,21.17
2022-11-15T07:41:39.953Z,15.97
2022-11-15T07:44:07.151Z,12.30
2022-11-15T07:46:33.663Z,19.30
2022-11-15T07:49:00.102Z,19.23
2022-11-15T07:51:26.618Z,14.30
2022-11-15T07:53:54.247Z,13.20
2022-11-15T07:56:22.009Z,12.57
2022-11-15T07:58:48.668Z,17.70
2022-11-15T08:01:15.289Z,13.77
2022-11-15T08:03:42.031Z,11.20
2022-11-15T08:06:08.581Z,12.03
2022-11-15T08:08:35.268Z,16.57
2022-11-15T08:11:02.014Z,23.63
2022-11-15T08:13:29.144Z,9.63
2022-11-15T08:16:00.500Z,11.93
2022-11-15T08:18:27.007Z,11.93
2022-11-15T08:20:53.461Z,23.40
2022-11-15T08:23:20.222Z,11.73
2022-11-15T08:25:46.794Z,11.10
2022-11-15T08:28:13.319Z,8.70
2022-11-15T08:30:43.048Z,12.23
2022-11-15T08:33:14.624Z,10.47
2022-11-15T08:35:42.373Z,12.33
2022-11-15T08:38:08.891Z,15.10
2022-11-15T08:40:36.159Z,10.90
2022-11-15T08:43:03.844Z,23.93
2022-11-15T08:45:31.268Z,9.47
2022-11-15T08:47:57.854Z,10.10
2022-11-15T08:50:24.400Z,10.07
2022-11-15T08:52:50.921Z,12.20
2022-11-15T08:55:17.848Z,10.17
2022-11-15T08:57:44.743Z,13.57
2022-11-15T09:00:12.832Z,12.30
2022-11-15T09:02:40.251Z,21.53
2022-11-15T09:05:07.594Z,18.93
2022-11-15T09:07:34.222Z,11.63
2022-11-15T09:10:01.206Z,7.80
2022-11-15T09:12:27.800Z,11.27
2022-11-15T09:14:54.426Z,14.47
2022-11-15T09:17:24.668Z,17.13
2022-11-15T09:19:52.031Z,13.47
2022-11-15T09:22:18.859Z,9.90
2022-11-15T09:24:45.395Z,16.23
2022-11-15T09:29:56.217Z,16.40
2022-11-15T09:32:24.262Z,13.73
2022-11-15T09:34:51.487Z,9.20
2022-11-15T09:37:18.021Z,14.83
2022-11-15T09:39:44.491Z,13.20
2022-11-15T09:42:32.420Z,15.53
2022-11-15T09:45:28.127Z,15.40
2022-11-15T09:48:27.067Z,13.70
2022-11-15T09:50:59.732Z,19.20
2022-11-15T09:54:24.102Z,11.30
2022-11-15T09:56:37.198Z,8.60
2022-11-15T09:59:14.729Z,10.43
2022-11-15T10:01:48.955Z,17.30
2022-11-15T10:04:15.974Z,15.93
2022-11-15T10:07:07.098Z,13.47
2022-11-15T10:09:41.343Z,8.90
2022-11-15T10:12:09.742Z,11.73
2022-11-15T10:14:36.770Z,21.07
2022-11-15T10:17:18.221Z,10.13
2022-11-15T10:20:24.258Z,12.83
2022-11-15T10:22:51.762Z,13.30
2022-11-15T10:25:37.091Z,15.00
2022-11-15T10:28:25.387Z,16.07
2022-11-15T10:30:54.765Z,20.00
2022-11-15T10:33:30.454Z,8.90
2022-11-15T10:36:16.420Z,11.47
2022-11-15T10:38:49.050Z,15.40
2022-11-15T10:41:17.525Z,16.27
2022-11-15T10:43:44.138Z,23.63
2022-11-15T10:46:45.689Z,23.43
2022-11-15T10:49:17.360Z,22.30
2022-11-15T10:51:54.608Z,17.67
2022-11-15T10:54:45.530Z,12.20
2022-11-15T10:57:15.957Z,18.20
2022-11-15T10:59:57.450Z,11.57
2022-11-15T11:02:34.575Z,14.50
2022-11-15T11:05:02.300Z,16.03
2022-11-15T11:07:31.314Z,12.00
2022-11-15T11:10:49.223Z,13.40
2022-11-15T11:13:28.582Z,14.53
2022-11-15T11:16:07.510Z,16.30
2022-11-15T11:18:58.697Z,16.70
2022-11-15T11:21:40.298Z,6.53
2022-11-15T11:24:30.037Z,14.10
2022-11-15T11:27:15.234Z,13.87
2022-11-15T11:30:11.186Z,11.30
2022-11-15T11:32:57.156Z,16.13
2022-11-15T11:35:42.126Z,21.13
2022-11-15T11:38:32.679Z,15.60
2022-11-15T11:41:17.758Z,18.30
2022-11-15T11:44:08.266Z,19.40
2022-11-15T11:46:47.053Z,13.63
2022-11-15T11:49:18.277Z,10.77
2022-11-15T11:51:53.030Z,16.67
2022-11-15T11:54:36.910Z,14.27
2022-11-15T11:57:08.556Z,11.97
2022-11-15T11:59:42.207Z,15.20
2022-11-15T12:02:15.950Z,13.83
2022-11-15T12:04:46.705Z,19.47
2022-11-15T12:07:18.399Z,16.57
2022-11-15T12:09:44.995Z,14.07
2022-11-15T12:12:20.000Z,12.13
2022-11-15T12:14:53.164Z,11.13
2022-11-15T12:17:32.937Z,11.30
2022-11-15T12:20:17.631Z,8.80
2022-11-15T12:22:48.535Z,9.03
2022-11-15T12:25:36.305Z,7.53
2022-11-15T12:28:04.560Z,11.33
2022-11-15T12:30:47.971Z,9.10
2022-11-15T12:33:38.516Z,14.70
2022-11-15T12:36:12.765Z,9.37
2022-11-15T12:39:00.923Z,10.47
2022-11-15T12:41:32.586Z,13.67
2022-11-15T12:44:02.583Z,13.47
2022-11-15T12:46:49.005Z,17.93
2022-11-15T12:49:24.603Z,10.67
2022-11-15T12:51:52.070Z,11.10
2022-11-15T12:54:24.628Z,11.07
2022-11-15T12:57:09.311Z,12.83
2022-11-15T12:59:59.966Z,14.53
2022-11-15T13:02:38.327Z,14.03
2022-11-15T13:05:19.926Z,15.90
2022-11-15T13:07:46.415Z,23.20
2022-11-15T13:10:12.841Z,12.87
2022-11-15T13:12:45.519Z,14.03
2022-11-15T13:15:15.576Z,10.47
2022-11-15T13:17:46.811Z,10.53
2022-11-15T13:20:16.366Z,12.43
2022-11-15T13:22:52.972Z,12.03
2022-11-15T13:25:39.451Z,20.87
2022-11-15T13:28:15.043Z,10.17
2022-11-15T13:30:56.224Z,22.37
2022-11-15T13:33:35.714Z,19.93
2022-11-15T13:36:23.668Z,15.67
2022-11-15T13:39:25.675Z,12.83
2022-11-15T13:41:53.069Z,23.53
2022-11-15T13:44:32.308Z,26.20
2022-11-15T13:47:14.886Z,15.30
2022-11-15T13:49:42.134Z,15.27
2022-11-15T13:52:14.862Z,7.93
2022-11-15T13:54:45.924Z,21.70
2022-11-15T13:57:22.464Z,18.60
2022-11-15T13:59:54.779Z,38.37
2022-11-15T14:02:33.479Z,200.40
2022-11-15T14:05:16.095Z,139.27
2022-11-15T14:07:54.673Z,53.90
2022-11-15T14:10:35.998Z,31.63
2022-11-15T14:13:05.193Z,48.10
2022-11-15T14:15:34.957Z,21.47
2022-11-15T14:18:02.343Z,13.37
2022-11-15T14:20:29.421Z,13.73
2022-11-15T14:23:04.342Z,14.13
2022-11-15T14:25:33.181Z,20.73
2022-11-15T14:28:11.969Z,16.53
2022-11-15T14:30:40.150Z,15.53
2022-11-15T14:33:31.776Z,19.27
2022-11-15T14:36:00.091Z,9.40
2022-11-15T14:38:26.967Z,16.33
2022-11-15T14:40:54.938Z,17.67
2022-11-15T14:43:21.709Z,10.03
2022-11-15T14:45:48.679Z,12.50
2022-11-15T14:48:15.473Z,9.53
2022-11-15T14:50:42.095Z,15.73
2022-11-15T14:53:14.745Z,14.93
2022-11-15T14:55:41.751Z,30.47
2022-11-15T14:58:09.136Z,18.17
2022-11-15T15:00:37.223Z,14.60
2022-11-15T15:03:04.943Z,25.80
2022-11-15T15:05:36.957Z,18.40
2022-11-15T15:08:04.220Z,21.30
2022-11-15T15:10:41.370Z,16.30
2022-11-15T15:13:18.917Z,12.20
2022-11-15T15:15:45.551Z,19.23
2022-11-15T15:18:12.506Z,19.37
2022-11-15T15:20:40.696Z,14.67
2022-11-15T15:23:19.921Z,18.60
2022-11-15T15:25:48.867Z,20.10
2022-11-15T15:28:15.452Z,17.93
2022-11-15T15:30:42.186Z,21.37
2022-11-15T15:33:08.765Z,18.67
2022-11-15T15:35:36.112Z,20.70
2022-11-15T15:38:03.333Z,19.73
2022-11-15T15:40:32.773Z,21.17
2022-11-15T15:42:59.858Z,16.63
2022-11-15T15:45:28.063Z,14.20
2022-11-15T15:47:54.928Z,15.40
2022-11-15T15:50:31.394Z,18.43
2022-11-15T15:53:00.581Z,25.23
2022-11-15T15:55:27.643Z,15.03
2022-11-15T15:57:54.723Z,15.73
2022-11-15T16:00:23.957Z,18.70
2022-11-15T16:02:50.619Z,13.73
2022-11-15T16:05:18.301Z,20.63
2022-11-15T16:07:45.996Z,9.47
2022-11-15T16:10:31.066Z,11.13
2022-11-15T16:12:58.320Z,27.93
2022-11-15T16:15:27.410Z,17.87
2022-11-15T16:17:55.974Z,16.17
2022-11-15T16:20:36.139Z,15.80
2022-11-15T16:23:09.579Z,28.73
2022-11-15T16:25:49.054Z,19.20
2022-11-15T16:28:26.790Z,14.87
2022-11-15T16:31:03.191Z,17.03
2022-11-15T16:33:29.985Z,19.10
2022-11-15T16:35:56.726Z,19.33
2022-11-15T16:38:23.503Z,13.90
2022-11-15T16:40:50.037Z,22.93
2022-11-15T16:43:17.076Z,14.67
2022-11-15T16:45:43.623Z,22.30
2022-11-15T16:48:21.919Z,19.03
2022-11-15T16:50:48.870Z,16.57
2022-11-15T16:53:15.460Z,19.13
2022-11-15T16:55:41.946Z,36.70
2022-11-15T16:58:09.715Z,27.80
2022-11-15T17:00:36.326Z,24.13
2022-11-15T17:03:03.989Z,38.30
2022-11-15T17:05:30.534Z,24.87
2022-11-15T17:07:57.472Z,31.87
2022-11-15T17:10:25.745Z,29.77
2022-11-15T17:12:53.045Z,23.63
2022-11-15T17:15:19.826Z,19.50
2022-11-15T17:17:52.240Z,27.07
2022-11-15T17:20:20.412Z,25.40
2022-11-15T17:22:47.412Z,21.40
2022-11-15T17:25:14.272Z,20.77
2022-11-15T17:27:41.233Z,27.27
2022-11-15T17:30:08.693Z,24.70
2022-11-15T17:32:38.302Z,34.60
2022-11-15T17:35:10.656Z,34.40
2022-11-15T17:37:41.655Z,21.43
2022-11-15T17:40:08.537Z,24.10
2022-11-15T17:42:35.125Z,27.30
2022-11-15T17:45:06.562Z,27.77
2022-11-15T17:47:36.004Z,25.17
2022-11-15T17:50:02.581Z,21.03
2022-11-15T17:52:29.045Z,24.13
2022-11-15T17:54:55.520Z,24.17
2022-11-15T17:57:21.998Z,26.63
2022-11-15T17:59:49.026Z,18.37
2022-11-15T18:02:15.756Z,30.87
2022-11-15T18:04:42.281Z,34.83
2022-11-15T18:07:11.668Z,28.87
2022-11-15T18:09:42.351Z,41.03
2022-11-15T18:12:09.847Z,34.03
2022-11-15T18:14:36.432Z,36.13
2022-11-15T18:17:03.057Z,55.73
2022-11-15T18:19:29.526Z,40.50
2022-11-15T18:21:56.302Z,38.07
2022-11-15T18:24:24.489Z,44.33
2022-11-15T18:26:51.296Z,40.30
2022-11-15T18:29:18.401Z,36.00
2022-11-15T18:31:47.809Z,45.93
2022-11-15T18:34:14.479Z,37.80
2022-11-15T18:36:41.384Z,36.80
2022-11-15T18:39:07.951Z,39.97
2022-11-15T18:41:34.684Z,43.17
2022-11-15T18:44:02.398Z,29.10
2022-11-15T18:46:31.084Z,45.90
2022-11-15T18:48:59.572Z,45.37
2022-11-15T18:51:30.412Z,35.57
2022-11-15T18:53:59.769Z,41.43
2022-11-15T18:56:27.774Z,34.77
2022-11-15T18:58:56.102Z,38.53
2022-11-15T19:01:33.910Z,43.43
2022-11-15T19:04:06.619Z,41.63
2022-11-15T19:06:33.669Z,33.07
2022-11-15T19:09:00.464Z,30.70
2022-11-15T19:11:32.589Z,35.40
2022-11-15T19:14:03.237Z,26.40
2022-11-15T19:16:31.925Z,28.27
2022-11-15T19:19:00.033Z,23.47
2022-11-15T19:21:27.471Z,32.10
2022-11-15T19:23:54.447Z,30.73
2022-11-15T19:26:23.457Z,31.87
2022-11-15T19:28:57.958Z,32.13
2022-11-15T19:31:25.729Z,31.53
2022-11-15T19:33:52.883Z,37.33
2022-11-15T19:36:26.944Z,35.83
2022-11-15T19:38:54.589Z,33.73
2022-11-15T19:41:22.607Z,28.27
2022-11-15T19:43:50.838Z,27.10
2022-11-15T19:46:20.408Z,29.53
2022-11-15T19:48:47.866Z,35.13
2022-11-15T19:51:19.286Z,41.43
2022-11-15T19:53:45.817Z,27.27
2022-11-15T19:56:14.731Z,45.37
2022-11-15T19:58:42.326Z,21.43
2022-11-15T20:01:27.725Z,30.13
2022-11-15T20:03:57.916Z,20.00
2022-11-15T20:06:35.713Z,20.37
2022-11-15T20:09:02.626Z,25.80
2022-11-15T20:11:29.218Z,24.13
2022-11-15T20:13:59.588Z,27.93
2022-11-15T20:16:26.744Z,24.50
2022-11-15T20:18:54.293Z,21.67
2022-11-15T20:21:22.048Z,33.27
2022-11-15T20:23:51.085Z,34.63
2022-11-15T20:26:21.090Z,48.90
2022-11-15T20:28:48.498Z,33.30
2022-11-15T20:31:15.698Z,36.10
2022-11-15T20:33:42.373Z,31.33
2022-11-15T20:36:13.975Z,39.50
2022-11-15T20:38:40.941Z,34.47
2022-11-15T20:41:07.922Z,39.73
2022-11-15T20:43:34.503Z,39.80
2022-11-15T20:46:04.278Z,35.33
2022-11-15T20:48:31.248Z,55.43
2022-11-15T20:51:15.146Z,53.37
2022-11-15T20:53:42.837Z,46.60
2022-11-15T20:56:17.252Z,49.23
2022-11-15T20:58:48.297Z,48.50
2022-11-15T21:01:17.028Z,43.40
2022-11-15T21:03:43.736Z,36.27
2022-11-15T21:06:11.024Z,40.63
2022-11-15T21:08:56.082Z,25.57
2022-11-15T21:11:43.508Z,42.43
2022-11-15T21:14:10.076Z,34.30
2022-11-15T21:16:37.774Z,31.73
2022-11-15T21:19:05.848Z,27.33
2022-11-15T21:21:32.546Z,27.10
2022-11-15T21:23:59.140Z,29.83
2022-11-15T21:26:26.625Z,37.00
2022-11-15T21:28:53.179Z,32.27
2022-11-15T21:31:19.833Z,30.10
2022-11-15T21:33:46.369Z,35.60
2022-11-15T21:36:12.919Z,37.57
2022-11-15T21:38:39.528Z,31.70
2022-11-15T21:41:06.396Z,38.97
2022-11-15T21:43:33.072Z,39.83
2022-11-15T21:46:01.928Z,53.03
2022-11-15T21:48:30.119Z,45.00
2022-11-15T21:50:57.208Z,29.37
2022-11-15T21:53:24.898Z,32.50
2022-11-15T21:55:51.614Z,46.43
2022-11-15T21:58:18.535Z,35.47
2022-11-15T22:01:03.724Z,44.27
2022-11-15T22:03:30.438Z,33.23
2022-11-15T22:05:57.620Z,27.53
2022-11-15T22:08:24.489Z,39.63
2022-11-15T22:10:51.261Z,37.40
2022-11-15T22:13:17.862Z,32.40
2022-11-15T22:15:45.845Z,35.63
2022-11-15T22:18:13.166Z,31.17
2022-11-15T22:20:44.855Z,27.23
2022-11-15T22:23:12.150Z,20.10
2022-11-15T22:25:38.904Z,27.60
2022-11-15T22:28:05.491Z,18.77
2022-11-15T22:30:32.183Z,26.97
2022-11-15T22:32:58.763Z,29.40
2022-11-15T22:35:25.323Z,26.33
2022-11-15T22:37:52.814Z,23.83
2022-11-15T22:40:19.533Z,22.90
2022-11-15T22:42:46.174Z,31.73
2022-11-15T22:45:12.762Z,26.97
2022-11-15T22:47:39.355Z,22.43
2022-11-15T22:50:06.630Z,18.50
2022-11-15T22:52:33.261Z,18.83
2022-11-15T22:54:59.813Z,25.53
2022-11-15T22:57:26.402Z,27.37
2022-11-15T22:59:53.303Z,19.77
2022-11-15T23:02:19.969Z,22.47
2022-11-15T23:04:46.553Z,22.23
2022-11-15T23:07:13.276Z,12.73
2022-11-15T23:09:39.960Z,12.20
2022-11-15T23:12:25.722Z,18.30
2022-11-15T23:14:52.221Z,14.63
2022-11-15T23:17:18.997Z,19.33
2022-11-15T23:19:45.504Z,15.83
2022-11-15T23:22:30.427Z,22.43
2022-11-15T23:24:58.472Z,19.03
2022-11-15T23:27:25.448Z,38.13
2022-11-15T23:30:10.470Z,13.43
2022-11-15T23:32:55.534Z,19.63
2022-11-15T23:35:22.316Z,17.23
2022-11-15T23:37:48.978Z,28.63
2022-11-15T23:40:15.553Z,21.10
2022-11-15T23:42:42.017Z,11.33
2022-11-15T23:45:08.888Z,9.10
2022-11-15T23:47:35.462Z,14.17
2022-11-15T23:50:02.004Z,15.23
2022-11-15T23:52:28.717Z,15.00
2022-11-15T23:54:55.386Z,13.60
2022-11-15T23:57:21.925Z,22.13
2022-11-15T23:59:48.427Z,19.47
